Odin Finder — IZER — position and weather

sailwx.info

Track history (hours):
 
Tides and Currents Weather Stations Pressure Air Temp Water Temp Dewpoint Dewpoint Depression Visibility Wind Speed Wind Dir Waves Ship Positions

Odin Finder

Last reported at 2015-May-19 02:33 UTC. Time now 2015-May-22 20:40 UTC.
Position N 21°12' W 017°41'.

Length 46 m; draft 4.8 m.

Type: Ship. MMSI: 247048200.

Date/timePositionNaut miles runAvg speedWind from/ knotsBaromVisibWave heightAir tempDewpointWater temp
2015-May-19 02:33N 21°12' W 017°41'5 5.2
2015-May-19 01:30N 21°07' W 017°43'6 5.5
2015-May-19 00:23N 21°01' W 017°45'16 5.5
2015-May-18 21:34N 20°46' W 017°50'7 5.7
2015-May-18 20:18N 20°39' W 017°50'6 6.1
2015-May-18 19:16N 20°33' W 017°50'4 5.9
2015-May-18 18:33N 20°29' W 017°51'17 5.8
2015-May-18 15:34N 20°11' W 017°51'95 5.8
2015-May-17 23:20N 18°36' W 017°56'5 5.9
2015-May-17 22:29N 18°31' W 017°56'5 5.8
2015-May-17 21:34N 18°26' W 017°56'7 6.5
2015-May-17 20:33N 18°19' W 017°56'69 6.1
2015-May-17 09:20N 17°11' W 017°60'8 6.3
2015-May-17 08:05N 17°03' W 017°60'  
Track history (hours):
 
Tides and Currents Weather Stations Pressure Air Temp Water Temp Dewpoint Dewpoint Depression Visibility Wind Speed Wind Dir Waves Ship Positions

Odin Finder

Last reported at 2015-May-19 02:33 UTC. Time now 2015-May-22 20:40 UTC.
Position N 21°12' W 017°41'.

Length 46 m; draft 4.8 m.

Type: Ship. MMSI: 247048200.

Date/timePositionNaut miles runAvg speedWind from/ knotsBaromVisibWave heightAir tempDewpointWater temp
2015-May-19 02:33N 21°12' W 017°41'5 5.2
2015-May-19 01:30N 21°07' W 017°43'6 5.5
2015-May-19 00:23N 21°01' W 017°45'16 5.5
2015-May-18 21:34N 20°46' W 017°50'7 5.7
2015-May-18 20:18N 20°39' W 017°50'6 6.1
2015-May-18 19:16N 20°33' W 017°50'4 5.9
2015-May-18 18:33N 20°29' W 017°51'17 5.8
2015-May-18 15:34N 20°11' W 017°51'95 5.8
2015-May-17 23:20N 18°36' W 017°56'5 5.9
2015-May-17 22:29N 18°31' W 017°56'5 5.8
2015-May-17 21:34N 18°26' W 017°56'7 6.5
2015-May-17 20:33N 18°19' W 017°56'69 6.1
2015-May-17 09:20N 17°11' W 017°60'8 6.3
2015-May-17 08:05N 17°03' W 017°60'  

Dump ship's entire track history